createdAt,value
2023-10-15T00:01:35.551Z,99687.75
2023-10-15T00:04:03.529Z,99681.56
2023-10-15T00:06:31.251Z,99680.06
2023-10-15T00:08:57.659Z,99665.38
2023-10-15T00:11:24.049Z,99669.88
2023-10-15T00:13:50.470Z,99678.56
2023-10-15T00:16:23.360Z,99673.53
2023-10-15T00:18:50.107Z,99679.63
2023-10-15T00:21:16.621Z,99688.47
2023-10-15T00:23:44.957Z,99682.38
2023-10-15T00:26:15.211Z,99682.50
2023-10-15T00:28:41.979Z,99686.25
2023-10-15T00:31:14.912Z,99680.03
2023-10-15T00:33:43.695Z,99676.56
2023-10-15T00:36:14.798Z,99672.19
2023-10-15T00:38:47.747Z,99686.31
2023-10-15T00:41:15.224Z,99671.47
2023-10-15T00:43:56.172Z,99693.31
2023-10-15T00:46:27.714Z,99678.53
2023-10-15T00:49:14.457Z,99681.28
2023-10-15T00:51:42.310Z,99670.03
2023-10-15T00:54:13.264Z,99664.94
2023-10-15T00:56:40.215Z,99664.16
2023-10-15T00:59:09.876Z,99665.13
2023-10-15T01:01:39.207Z,99659.25
2023-10-15T01:04:08.659Z,99677.56
2023-10-15T01:06:35.449Z,99678.63
2023-10-15T01:09:11.946Z,99676.59
2023-10-15T01:11:39.466Z,99674.25
2023-10-15T01:14:06.774Z,99672.38
2023-10-15T01:16:37.241Z,99664.75
2023-10-15T01:19:14.052Z,99678.91
2023-10-15T01:21:44.441Z,99674.63
2023-10-15T01:24:10.834Z,99672.00
2023-10-15T01:26:40.192Z,99671.09
2023-10-15T01:29:09.565Z,99660.00
2023-10-15T01:31:52.737Z,99663.53
2023-10-15T01:34:23.836Z,99666.13
2023-10-15T01:36:52.382Z,99667.19
2023-10-15T01:39:38.868Z,99655.88
2023-10-15T01:42:07.900Z,99664.75
2023-10-15T01:44:40.293Z,99649.91
2023-10-15T01:47:06.697Z,99658.66
2023-10-15T01:49:33.160Z,99667.25
2023-10-15T01:52:06.872Z,99654.97
2023-10-15T01:54:34.072Z,99663.72
2023-10-15T01:57:01.012Z,99676.22
2023-10-15T01:59:28.185Z,99677.97
2023-10-15T02:01:57.645Z,99676.16
2023-10-15T02:04:27.863Z,99678.78
2023-10-15T02:06:54.752Z,99679.69
2023-10-15T02:09:23.759Z,99678.69
2023-10-15T02:11:53.018Z,99686.94
2023-10-15T02:14:25.022Z,99691.31
2023-10-15T02:16:51.794Z,99671.16
2023-10-15T02:19:35.935Z,99673.88
2023-10-15T02:22:02.731Z,99672.16
2023-10-15T02:24:34.633Z,99679.00
2023-10-15T02:27:06.135Z,99678.91
2023-10-15T02:29:32.781Z,99677.25
2023-10-15T02:32:35.126Z,99668.69
2023-10-15T02:35:07.197Z,99679.16
2023-10-15T02:37:33.762Z,99672.00
2023-10-15T02:40:00.799Z,99679.22
2023-10-15T02:42:35.868Z,99671.56
2023-10-15T02:45:02.776Z,99682.03
2023-10-15T02:47:48.012Z,99682.88
2023-10-15T02:50:18.790Z,99689.81
2023-10-15T02:52:48.731Z,99671.63
2023-10-15T02:55:16.269Z,99674.88
2023-10-15T02:57:43.117Z,99670.50
2023-10-15T03:00:28.840Z,99696.72
2023-10-15T03:02:56.003Z,99695.06
2023-10-15T03:05:31.528Z,99687.31
2023-10-15T03:08:00.959Z,99689.88
2023-10-15T03:10:28.924Z,99697.66
2023-10-15T03:12:55.333Z,99692.44
2023-10-15T03:15:22.170Z,99704.50
2023-10-15T03:17:48.570Z,99701.91
2023-10-15T03:20:17.927Z,99691.44
2023-10-15T03:22:45.566Z,99694.19
2023-10-15T03:25:14.783Z,99692.69
2023-10-15T03:27:41.494Z,99701.25
2023-10-15T03:30:10.980Z,99698.63
2023-10-15T03:32:45.861Z,99695.38
2023-10-15T03:35:19.739Z,99694.50
2023-10-15T03:37:49.231Z,99698.88
2023-10-15T03:40:38.951Z,99681.44
2023-10-15T03:43:07.900Z,99694.75
2023-10-15T03:45:34.788Z,99697.44
2023-10-15T03:48:02.111Z,99692.41
2023-10-15T03:50:30.884Z,99689.66
2023-10-15T03:52:57.556Z,99700.09
2023-10-15T03:55:31.318Z,99688.53
2023-10-15T03:58:00.085Z,99687.72
2023-10-15T04:00:37.035Z,99706.84
2023-10-15T04:03:19.656Z,99693.66
2023-10-15T04:06:14.722Z,99690.25
2023-10-15T04:08:59.931Z,99689.38
2023-10-15T04:11:30.977Z,99691.34
2023-10-15T04:14:18.167Z,99696.47
2023-10-15T04:16:45.259Z,99698.84
2023-10-15T04:19:12.084Z,99696.28
2023-10-15T04:21:41.425Z,99695.41
2023-10-15T04:24:08.158Z,99709.59
2023-10-15T04:26:37.234Z,99712.16
2023-10-15T04:29:17.146Z,99708.63
2023-10-15T04:31:46.173Z,99708.81
2023-10-15T04:34:18.088Z,99703.56
2023-10-15T04:36:45.015Z,99697.97
2023-10-15T04:39:14.424Z,99699.78
2023-10-15T04:41:41.887Z,99705.34
2023-10-15T04:44:21.553Z,99689.72
2023-10-15T04:46:48.080Z,99709.72
2023-10-15T04:49:18.613Z,99720.91
2023-10-15T04:51:45.367Z,99707.91
2023-10-15T04:54:11.806Z,99707.84
2023-10-15T04:56:38.255Z,99720.06
2023-10-15T04:59:05.646Z,99707.69
2023-10-15T05:01:34.609Z,99711.41
2023-10-15T05:04:02.651Z,99710.44
2023-10-15T05:06:29.746Z,99709.72
2023-10-15T05:08:56.717Z,99702.81
2023-10-15T05:11:24.185Z,99710.56
2023-10-15T05:13:51.992Z,99701.16
2023-10-15T05:16:18.473Z,99701.88
2023-10-15T05:18:45.853Z,99711.56
2023-10-15T05:21:14.256Z,99700.19
2023-10-15T05:23:40.810Z,99695.00
2023-10-15T05:26:07.236Z,99683.69
2023-10-15T05:28:33.774Z,99685.47
2023-10-15T05:31:02.885Z,99686.38
2023-10-15T05:33:29.999Z,99711.63
2023-10-15T05:35:58.084Z,99691.25
2023-10-15T05:38:26.800Z,99682.47
2023-10-15T05:40:58.421Z,99687.81
2023-10-15T05:43:25.002Z,99683.41
2023-10-15T05:45:51.764Z,99698.19
2023-10-15T05:48:18.810Z,99699.75
2023-10-15T05:50:51.560Z,99703.16
2023-10-15T05:53:18.221Z,99707.19
2023-10-15T05:55:44.993Z,99722.06
2023-10-15T05:58:11.455Z,99729.91
2023-10-15T06:00:40.847Z,99711.59
2023-10-15T06:03:08.411Z,99725.50
2023-10-15T06:05:34.841Z,99727.09
2023-10-15T06:08:01.417Z,99734.03
2023-10-15T06:10:30.779Z,99732.13
2023-10-15T06:12:57.841Z,99728.53
2023-10-15T06:15:25.195Z,99747.50
2023-10-15T06:17:51.884Z,99757.84
2023-10-15T06:20:34.934Z,99759.44
2023-10-15T06:23:05.382Z,99758.31
2023-10-15T06:25:46.057Z,99749.16
2023-10-15T06:28:15.555Z,99761.38
2023-10-15T06:30:42.617Z,99757.75
2023-10-15T06:33:09.120Z,99752.56
2023-10-15T06:35:35.577Z,99772.78
2023-10-15T06:38:02.685Z,99761.06
2023-10-15T06:40:29.986Z,99766.25
2023-10-15T06:43:03.166Z,99756.81
2023-10-15T06:45:29.926Z,99768.16
2023-10-15T06:47:56.568Z,99765.53
2023-10-15T06:50:26.457Z,99760.22
2023-10-15T06:52:57.080Z,99780.97
2023-10-15T06:55:23.813Z,99788.31
2023-10-15T06:57:50.612Z,99786.41
2023-10-15T07:00:24.309Z,99781.94
2023-10-15T07:02:55.017Z,99773.38
2023-10-15T07:05:22.088Z,99763.75
2023-10-15T07:07:48.992Z,99755.72
2023-10-15T07:10:18.175Z,99779.13
2023-10-15T07:12:49.305Z,99792.16
2023-10-15T07:15:18.344Z,99774.63
2023-10-15T07:17:45.724Z,99788.03
2023-10-15T07:20:16.070Z,99792.56
2023-10-15T07:22:47.874Z,99782.69
2023-10-15T07:25:16.217Z,99787.50
2023-10-15T07:27:43.955Z,99808.94
2023-10-15T07:30:13.342Z,99801.94
2023-10-15T07:32:41.274Z,99793.22
2023-10-15T07:35:08.606Z,99801.78
2023-10-15T07:37:36.016Z,99813.22
2023-10-15T07:40:09.158Z,99815.16
2023-10-15T07:42:35.805Z,99821.72
2023-10-15T07:45:03.285Z,99799.31
2023-10-15T07:47:31.720Z,99819.50
2023-10-15T07:50:00.310Z,99822.44
2023-10-15T07:52:27.238Z,99828.13
2023-10-15T07:54:55.310Z,99829.81
2023-10-15T07:57:22.486Z,99827.59
2023-10-15T07:59:48.989Z,99837.84
2023-10-15T08:02:17.065Z,99829.44
2023-10-15T08:04:44.491Z,99830.81
2023-10-15T08:07:11.314Z,99836.59
2023-10-15T08:09:37.997Z,99844.06
2023-10-15T08:12:06.411Z,99845.69
2023-10-15T08:14:32.830Z,99861.03
2023-10-15T08:17:00.262Z,99841.63
2023-10-15T08:19:26.850Z,99850.59
2023-10-15T08:21:53.362Z,99862.00
2023-10-15T08:24:28.120Z,99851.38
2023-10-15T08:26:54.538Z,99848.16
2023-10-15T08:29:21.203Z,99838.38
2023-10-15T08:31:48.173Z,99834.09
2023-10-15T08:34:14.608Z,99831.75
2023-10-15T08:36:41.027Z,99832.06
2023-10-15T08:39:10.421Z,99835.81
2023-10-15T08:41:40.090Z,99830.56
2023-10-15T08:44:06.937Z,99847.28
2023-10-15T08:46:33.396Z,99863.16
2023-10-15T08:48:59.948Z,99858.44
2023-10-15T08:51:26.305Z,99869.97
2023-10-15T08:53:52.683Z,99896.53
2023-10-15T08:56:22.396Z,99878.00
2023-10-15T08:58:55.826Z,99883.53
2023-10-15T09:01:22.649Z,99877.03
2023-10-15T09:03:49.154Z,99887.28
2023-10-15T09:06:15.696Z,99887.69
2023-10-15T09:08:44.717Z,99892.72
2023-10-15T09:11:14.137Z,99925.50
2023-10-15T09:13:40.612Z,99902.03
2023-10-15T09:16:07.732Z,99902.28
2023-10-15T09:18:37.670Z,99907.72
2023-10-15T09:21:07.345Z,99898.91
2023-10-15T09:23:36.590Z,99889.44
2023-10-15T09:26:03.117Z,99890.59
2023-10-15T09:28:30.159Z,99917.56
2023-10-15T09:31:03.891Z,99908.34
2023-10-15T09:33:30.647Z,99915.38
2023-10-15T09:35:58.130Z,99902.97
2023-10-15T09:38:24.652Z,99908.94
2023-10-15T09:40:51.110Z,99918.22
2023-10-15T09:43:18.215Z,99919.41
2023-10-15T09:45:44.689Z,99919.28
2023-10-15T09:48:11.251Z,99928.25
2023-10-15T09:50:42.420Z,99916.31
2023-10-15T09:53:11.719Z,99921.66
2023-10-15T09:55:39.389Z,99916.88
2023-10-15T09:58:06.018Z,99953.50
2023-10-15T10:00:55.741Z,99915.50
2023-10-15T10:03:30.912Z,99926.91
2023-10-15T10:06:16.361Z,99917.41
2023-10-15T10:09:02.517Z,99917.41
2023-10-15T10:11:39.802Z,99900.31
2023-10-15T10:14:13.838Z,99923.22
2023-10-15T10:16:43.190Z,99927.34
2023-10-15T10:19:09.932Z,99931.28
2023-10-15T10:21:36.352Z,99924.47
2023-10-15T10:24:07.392Z,99927.00
2023-10-15T10:26:33.762Z,99923.06
2023-10-15T10:29:02.218Z,99929.94
2023-10-15T10:31:31.745Z,99922.75
2023-10-15T10:33:58.197Z,99923.00
2023-10-15T10:36:54.360Z,99925.13
2023-10-15T10:39:23.555Z,99916.31
2023-10-15T10:41:50.844Z,99925.84
2023-10-15T10:44:27.377Z,99907.75
2023-10-15T10:46:54.398Z,99912.22
2023-10-15T10:49:36.678Z,99920.06
2023-10-15T10:52:16.026Z,99914.13
2023-10-15T10:54:43.694Z,99918.97
2023-10-15T10:57:11.415Z,99922.34
2023-10-15T10:59:38.678Z,99917.94
2023-10-15T11:02:05.730Z,99902.25
2023-10-15T11:04:32.190Z,99923.72
2023-10-15T11:06:59.929Z,99902.81
2023-10-15T11:09:26.516Z,99903.16
2023-10-15T11:11:53.921Z,99907.09
2023-10-15T11:14:24.972Z,99900.25
2023-10-15T11:16:52.231Z,99904.00
2023-10-15T11:19:25.891Z,99899.13
2023-10-15T11:21:52.964Z,99905.13
2023-10-15T11:24:20.178Z,99910.97
2023-10-15T11:26:46.783Z,99897.38
2023-10-15T11:29:16.673Z,99899.13
2023-10-15T11:31:44.418Z,99897.44
2023-10-15T11:34:24.098Z,99893.59
2023-10-15T11:36:51.503Z,99898.75
2023-10-15T11:39:50.784Z,99887.34
2023-10-15T11:42:20.841Z,99887.94
2023-10-15T11:44:56.454Z,99887.53
2023-10-15T11:47:33.972Z,99893.88
2023-10-15T11:50:01.120Z,99885.69
2023-10-15T11:52:27.910Z,99890.47
2023-10-15T11:54:55.468Z,99883.88
2023-10-15T11:57:26.536Z,99879.53
2023-10-15T11:59:56.744Z,99887.81
2023-10-15T12:02:24.206Z,99886.69
2023-10-15T12:04:52.794Z,99889.63
2023-10-15T12:07:22.456Z,99896.03
2023-10-15T12:09:49.673Z,99904.19
2023-10-15T12:12:16.216Z,99894.59
2023-10-15T12:14:42.596Z,99876.16
2023-10-15T12:17:09.216Z,99900.22
2023-10-15T12:19:35.594Z,99895.56
2023-10-15T12:22:03.581Z,99904.75
2023-10-15T12:24:32.175Z,99923.41
2023-10-15T12:26:58.554Z,99935.06
2023-10-15T12:29:31.472Z,99927.97
2023-10-15T12:31:58.142Z,99916.56
2023-10-15T12:34:25.708Z,99924.56
2023-10-15T12:36:53.999Z,99931.19
2023-10-15T12:39:28.821Z,99919.34
2023-10-15T12:41:55.492Z,99922.16
2023-10-15T12:44:23.797Z,99929.59
2023-10-15T12:46:52.505Z,99931.88
2023-10-15T12:49:20.747Z,99935.34
2023-10-15T12:51:47.669Z,99931.63
2023-10-15T12:54:14.576Z,99940.50
2023-10-15T12:56:43.712Z,99943.13
2023-10-15T12:59:10.217Z,99947.69
2023-10-15T13:01:36.649Z,99961.22
2023-10-15T13:04:03.047Z,99993.78
2023-10-15T13:06:29.405Z,100003.06
2023-10-15T13:08:57.093Z,100015.22
2023-10-15T13:11:23.808Z,100027.22
2023-10-15T13:13:51.535Z,100034.19
2023-10-15T13:16:19.532Z,100028.44
2023-10-15T13:18:46.095Z,100028.41
2023-10-15T13:21:12.449Z,100028.50
2023-10-15T13:23:38.939Z,100033.34
2023-10-15T13:26:09.601Z,100033.75
2023-10-15T13:28:36.073Z,100027.16
2023-10-15T13:31:03.381Z,100031.72
2023-10-15T13:33:30.236Z,100041.81
2023-10-15T13:35:56.747Z,100016.75
2023-10-15T13:38:27.156Z,100017.81
2023-10-15T13:40:53.681Z,100016.91
2023-10-15T13:43:20.745Z,100024.13
2023-10-15T13:45:47.164Z,100020.81
2023-10-15T13:48:13.903Z,100036.13
2023-10-15T13:50:44.162Z,100037.31
2023-10-15T13:53:14.013Z,100037.41
2023-10-15T13:55:40.595Z,100039.97
2023-10-15T13:58:07.021Z,100051.53
2023-10-15T14:00:43.377Z,100049.53
2023-10-15T14:03:11.170Z,100040.09
2023-10-15T14:05:41.995Z,100050.66
2023-10-15T14:08:09.987Z,100036.84
2023-10-15T14:10:36.686Z,100042.81
2023-10-15T14:13:17.467Z,100039.59
2023-10-15T14:15:46.694Z,100028.72
2023-10-15T14:18:13.117Z,100045.22
2023-10-15T14:20:42.098Z,100041.47
2023-10-15T14:23:08.809Z,100041.91
2023-10-15T14:25:35.321Z,100034.69
2023-10-15T14:28:01.903Z,100038.72
2023-10-15T14:30:28.371Z,100038.09
2023-10-15T14:32:57.514Z,100039.03
2023-10-15T14:35:24.351Z,100034.78
2023-10-15T14:37:50.865Z,100048.91
2023-10-15T14:40:17.285Z,100044.13
2023-10-15T14:42:43.665Z,100034.63
2023-10-15T14:45:13.992Z,100028.63
2023-10-15T14:47:41.033Z,100030.50
2023-10-15T14:50:07.810Z,100038.78
2023-10-15T14:52:34.245Z,100037.22
2023-10-15T14:55:00.644Z,100036.09
2023-10-15T14:57:27.021Z,100048.28
2023-10-15T14:59:53.498Z,100054.72
2023-10-15T15:02:19.956Z,100043.44
2023-10-15T15:04:46.510Z,100048.03
2023-10-15T15:07:12.974Z,100055.88
2023-10-15T15:09:39.926Z,100041.94
2023-10-15T15:12:07.076Z,100050.66
2023-10-15T15:14:34.002Z,100048.88
2023-10-15T15:17:00.451Z,100044.53
2023-10-15T15:19:26.921Z,100052.66
2023-10-15T15:21:54.200Z,100040.72
2023-10-15T15:24:22.912Z,100044.88
2023-10-15T15:26:49.379Z,100045.78
2023-10-15T15:29:17.100Z,100051.22
2023-10-15T15:31:44.004Z,100034.81
2023-10-15T15:34:11.811Z,100039.09
2023-10-15T15:36:38.297Z,100028.78
2023-10-15T15:39:05.117Z,100022.66
2023-10-15T15:41:33.957Z,100026.28
2023-10-15T15:44:01.642Z,100022.91
2023-10-15T15:46:30.976Z,100017.41
2023-10-15T15:48:59.185Z,100018.50
2023-10-15T15:51:25.693Z,100025.53
2023-10-15T15:53:52.188Z,100020.34
2023-10-15T15:56:18.718Z,100017.88
2023-10-15T15:58:45.410Z,100011.78
2023-10-15T16:01:24.670Z,100028.25
2023-10-15T16:04:02.433Z,100031.81
2023-10-15T16:06:29.428Z,100043.03
2023-10-15T16:08:55.858Z,100044.59
2023-10-15T16:11:22.291Z,100046.13
2023-10-15T16:13:49.015Z,100045.16
2023-10-15T16:16:15.566Z,100053.66
2023-10-15T16:18:42.111Z,100051.88
2023-10-15T16:21:08.484Z,100054.25
2023-10-15T16:23:34.875Z,100054.13
2023-10-15T16:26:02.354Z,100058.56
2023-10-15T16:28:28.741Z,100063.59
2023-10-15T16:30:55.165Z,100075.88
2023-10-15T16:33:21.638Z,100072.38
2023-10-15T16:35:49.478Z,100073.22
2023-10-15T16:38:15.916Z,100067.97
2023-10-15T16:40:42.378Z,100068.91
2023-10-15T16:43:11.822Z,100066.09
2023-10-15T16:45:38.553Z,100061.72
2023-10-15T16:48:11.689Z,100059.19
2023-10-15T16:50:42.321Z,100049.56
2023-10-15T16:53:12.055Z,100046.06
2023-10-15T16:55:41.175Z,100037.34
2023-10-15T16:58:07.772Z,100043.53
2023-10-15T17:00:35.734Z,100033.03
2023-10-15T17:03:04.991Z,100027.13
2023-10-15T17:05:32.475Z,100030.59
2023-10-15T17:07:59.059Z,100030.66
2023-10-15T17:10:25.600Z,100036.75
2023-10-15T17:12:52.391Z,100041.13
2023-10-15T17:15:18.829Z,100039.16
2023-10-15T17:17:45.305Z,100037.47
2023-10-15T17:20:12.386Z,100042.72
2023-10-15T17:22:39.197Z,100033.00
2023-10-15T17:25:06.102Z,100025.03
2023-10-15T17:27:34.059Z,100033.47
2023-10-15T17:30:17.825Z,100017.75
2023-10-15T17:32:45.853Z,100034.13
2023-10-15T17:35:12.936Z,100020.13
2023-10-15T17:37:40.161Z,100037.47
2023-10-15T17:40:07.014Z,100032.00
2023-10-15T17:42:35.559Z,100019.69
2023-10-15T17:45:02.062Z,100011.72
2023-10-15T17:47:29.588Z,100027.59
2023-10-15T17:49:57.077Z,100025.06
2023-10-15T17:52:25.621Z,100014.56
2023-10-15T17:54:53.133Z,100016.75
2023-10-15T17:57:19.766Z,100021.16
2023-10-15T17:59:46.150Z,100010.06
2023-10-15T18:02:12.592Z,100014.41
2023-10-15T18:04:39.193Z,100024.19
2023-10-15T18:07:05.910Z,100014.63
2023-10-15T18:09:35.482Z,100016.34
2023-10-15T18:12:02.195Z,100020.66
2023-10-15T18:14:28.752Z,100020.78
2023-10-15T18:16:55.226Z,100033.03
2023-10-15T18:19:21.732Z,100033.72
2023-10-15T18:21:48.304Z,100034.75
2023-10-15T18:24:15.338Z,100035.72
2023-10-15T18:26:41.838Z,100042.78
2023-10-15T18:29:08.293Z,100047.09
2023-10-15T18:31:36.047Z,100039.09
2023-10-15T18:34:02.462Z,100043.63
2023-10-15T18:36:28.904Z,100049.59
2023-10-15T18:38:57.050Z,100049.50
2023-10-15T18:41:24.499Z,100063.47
2023-10-15T18:43:51.244Z,100056.38
2023-10-15T18:46:18.688Z,100058.25
2023-10-15T18:48:45.108Z,100065.19
2023-10-15T18:51:35.810Z,100069.56
2023-10-15T18:54:01.318Z,100066.13
2023-10-15T18:56:29.231Z,100071.19
2023-10-15T18:58:57.519Z,100077.41
2023-10-15T19:01:24.264Z,100081.66
2023-10-15T19:03:50.894Z,100081.66
2023-10-15T19:06:17.442Z,100090.44
2023-10-15T19:08:43.847Z,100089.53
2023-10-15T19:11:16.159Z,100088.75
2023-10-15T19:13:42.621Z,100094.94
2023-10-15T19:16:10.618Z,100097.66
2023-10-15T19:18:38.201Z,100097.66
2023-10-15T19:21:08.484Z,100101.22
2023-10-15T19:23:34.933Z,100115.91
2023-10-15T19:26:04.946Z,100123.75
2023-10-15T19:28:31.349Z,100117.63
2023-10-15T19:30:57.745Z,100128.81
2023-10-15T19:33:29.940Z,100138.41
2023-10-15T19:35:56.817Z,100142.88
2023-10-15T19:38:23.271Z,100139.41
2023-10-15T19:40:50.228Z,100140.34
2023-10-15T19:43:20.257Z,100140.16
2023-10-15T19:45:47.778Z,100158.59
2023-10-15T19:48:15.011Z,100151.66
2023-10-15T19:50:41.656Z,100149.88
2023-10-15T19:53:08.940Z,100154.34
2023-10-15T19:55:35.750Z,100145.56
2023-10-15T19:58:04.607Z,100145.56
2023-10-15T20:00:44.748Z,100143.06
2023-10-15T20:03:13.171Z,100135.28
2023-10-15T20:05:40.344Z,100129.34
2023-10-15T20:08:06.877Z,100132.75
2023-10-15T20:10:35.122Z,100131.97
2023-10-15T20:13:01.860Z,100135.41
2023-10-15T20:18:56.460Z,100121.63
2023-10-15T20:21:22.981Z,100133.94
2023-10-15T20:23:56.284Z,100137.41
2023-10-15T20:26:23.389Z,100128.03
2023-10-15T20:28:50.224Z,100128.09
2023-10-15T20:31:16.760Z,100128.13
2023-10-15T20:33:43.840Z,100129.97
2023-10-15T20:36:10.357Z,100129.97
2023-10-15T20:38:36.871Z,100141.44
2023-10-15T20:41:03.796Z,100148.41
2023-10-15T20:43:30.179Z,100139.84
2023-10-15T20:45:56.721Z,100148.56
2023-10-15T20:48:23.407Z,100134.53
2023-10-15T20:50:49.959Z,100145.94
2023-10-15T20:53:17.292Z,100145.06
2023-10-15T20:55:44.529Z,100143.34
2023-10-15T20:58:11.159Z,100157.19
2023-10-15T21:00:38.070Z,100145.97
2023-10-15T21:03:06.164Z,100150.38
2023-10-15T21:05:32.775Z,100151.19
2023-10-15T21:07:59.408Z,100157.19
2023-10-15T21:10:25.848Z,100165.00
2023-10-15T21:12:53.321Z,100164.03
2023-10-15T21:15:19.803Z,100167.38
2023-10-15T21:17:46.348Z,100168.13
2023-10-15T21:20:12.821Z,100162.81
2023-10-15T21:22:40.370Z,100170.56
2023-10-15T21:25:10.412Z,100148.56
2023-10-15T21:27:38.274Z,100138.00
2023-10-15T21:30:08.295Z,100143.31
2023-10-15T21:32:35.070Z,100145.06
2023-10-15T21:35:01.935Z,100146.00
2023-10-15T21:37:28.514Z,100158.34
2023-10-15T21:39:54.952Z,100155.66
2023-10-15T21:42:21.757Z,100167.06
2023-10-15T21:44:48.275Z,100159.34
2023-10-15T21:47:14.682Z,100164.44
2023-10-15T21:49:41.979Z,100164.50
2023-10-15T21:52:09.068Z,100165.34
2023-10-15T21:54:35.820Z,100170.56
2023-10-15T21:57:02.256Z,100187.06
2023-10-15T21:59:28.708Z,100169.53
2023-10-15T22:01:55.079Z,100171.31
2023-10-15T22:04:21.420Z,100174.69
2023-10-15T22:06:47.872Z,100182.38
2023-10-15T22:09:14.404Z,100182.31
2023-10-15T22:11:40.817Z,100201.31
2023-10-15T22:14:10.213Z,100219.59
2023-10-15T22:16:36.755Z,100230.00
2023-10-15T22:19:06.688Z,100231.81
2023-10-15T22:21:33.876Z,100243.16
2023-10-15T22:24:00.588Z,100238.75
2023-10-15T22:26:27.192Z,100236.09
2023-10-15T22:29:00.225Z,100230.84
2023-10-15T22:31:27.706Z,100229.94
2023-10-15T22:33:54.197Z,100224.66
2023-10-15T22:36:21.175Z,100235.94
2023-10-15T22:38:47.729Z,100242.06
2023-10-15T22:41:14.233Z,100227.38
2023-10-15T22:43:40.620Z,100227.44
2023-10-15T22:46:08.086Z,100230.91
2023-10-15T22:48:35.307Z,100223.94
2023-10-15T22:51:01.878Z,100230.09
2023-10-15T22:53:28.306Z,100237.00
2023-10-15T22:55:54.665Z,100236.16
2023-10-15T22:58:21.191Z,100231.72
2023-10-15T23:00:51.404Z,100236.22
2023-10-15T23:03:19.155Z,100239.72
2023-10-15T23:05:45.731Z,100237.31
2023-10-15T23:08:12.187Z,100235.63
2023-10-15T23:10:41.529Z,100231.44
2023-10-15T23:13:08.682Z,100235.91
2023-10-15T23:15:39.624Z,100239.41
2023-10-15T23:18:09.403Z,100234.38
2023-10-15T23:20:36.934Z,100240.44
2023-10-15T23:23:06.864Z,100236.97
2023-10-15T23:25:35.573Z,100233.50
2023-10-15T23:28:14.081Z,100237.84
2023-10-15T23:30:45.690Z,100244.84
2023-10-15T23:33:12.458Z,100243.13
2023-10-15T23:35:39.275Z,100254.38
2023-10-15T23:38:08.412Z,100252.63
2023-10-15T23:40:35.686Z,100261.41
2023-10-15T23:43:05.991Z,100264.91
2023-10-15T23:45:32.601Z,100254.44
2023-10-15T23:48:08.597Z,100265.75
2023-10-15T23:50:37.423Z,100263.22
2023-10-15T23:53:05.184Z,100267.50
2023-10-15T23:55:38.107Z,100275.41
2023-10-15T23:58:05.056Z,100277.91
